Time;durP1;ratioP1;P1;durP2;ratioP2;P2;SDS_P1;SDS_P2;PMS_P1;PMS_P2;Temp;Humidity;BMP_temperature;BMP_pressure;BME280_temperature;BME280_humidity;BME280_pressure;Samples;Min_cycle;Max_cycle;Signal;HPM_P1;HPM_P2
2023/08/16 00:01:48;;;;;;;10.97;5.20;;;;;;;;;;5062752;28;20682;-72
2023/08/16 00:04:52;;;;;;;8.10;5.47;;;;;;;;;;5051082;28;20184;-72
2023/08/16 00:07:56;;;;;;;8.23;5.43;;;;;;;;;;5075000;28;20188;-72
2023/08/16 00:11:01;;;;;;;5.63;4.90;;;;;;;;;;5074801;28;20215;-72
2023/08/16 00:14:04;;;;;;;8.80;5.23;;;;;;;;;;5062735;28;20516;-72
2023/08/16 00:17:09;;;;;;;8.23;5.33;;;;;;;;;;5050825;28;20187;-72
2023/08/16 00:20:13;;;;;;;11.30;5.37;;;;;;;;;;5074639;28;20195;-72
2023/08/16 00:23:17;;;;;;;8.20;5.00;;;;;;;;;;5074262;28;20591;-72
2023/08/16 00:26:22;;;;;;;8.00;5.37;;;;;;;;;;5074554;28;20187;-72
2023/08/16 00:29:26;;;;;;;9.00;6.10;;;;;;;;;;5074702;28;20622;-72
2023/08/16 00:32:30;;;;;;;7.93;5.80;;;;;;;;;;5062418;28;20215;-72
2023/08/16 00:35:34;;;;;;;7.33;5.80;;;;;;;;;;5050021;28;20179;-72
2023/08/16 00:38:42;;;;;;;7.60;5.17;;;;;;;;;;5050634;28;20187;-72
2023/08/16 00:41:46;;;;;;;8.70;5.83;;;;;;;;;;5062087;28;20215;-72
2023/08/16 00:44:50;;;;;;;7.10;5.60;;;;;;;;;;5074294;28;20179;-72
2023/08/16 00:47:54;;;;;;;11.70;6.10;;;;;;;;;;5061782;28;20191;-72
2023/08/16 00:51:00;;;;;;;6.80;6.10;;;;;;;;;;5073926;28;20567;-72
2023/08/16 00:54:05;;;;;;;10.03;6.40;;;;;;;;;;5050183;28;20527;-72
2023/08/16 00:57:11;;;;;;;7.97;6.30;;;;;;;;;;5061955;28;20528;-72
2023/08/16 01:00:15;;;;;;;7.20;5.60;;;;;;;;;;5073876;28;20171;-72
2023/08/16 01:03:19;;;;;;;8.70;6.30;;;;;;;;;;5073749;28;20673;-72
2023/08/16 01:06:23;;;;;;;7.13;5.80;;;;;;;;;;5038619;28;20175;-72
2023/08/16 01:09:29;;;;;;;8.93;6.13;;;;;;;;;;5061757;28;20180;-72
2023/08/16 01:13:02;;;;;;;12.17;6.03;;;;;;;;;;5061226;28;20207;-72
2023/08/16 01:16:08;;;;;;;9.67;5.70;;;;;;;;;;5073566;28;20187;-72
2023/08/16 01:19:23;;;;;;;8.63;6.40;;;;;;;;;;5061190;28;20195;-72
2023/08/16 01:23:06;;;;;;;8.00;5.40;;;;;;;;;;5061364;28;20694;-72
2023/08/16 01:26:27;;;;;;;9.10;5.80;;;;;;;;;;5044087;28;20535;-73
2023/08/16 01:29:32;;;;;;;6.27;5.40;;;;;;;;;;5073539;28;20183;-72
2023/08/16 01:32:37;;;;;;;9.70;5.87;;;;;;;;;;5060986;28;20211;-72
2023/08/16 01:35:41;;;;;;;7.17;5.87;;;;;;;;;;5061330;28;20188;-72
2023/08/16 01:38:46;;;;;;;7.67;5.83;;;;;;;;;;5061164;28;20179;-72
2023/08/16 01:41:55;;;;;;;7.23;4.97;;;;;;;;;;5073159;28;20206;-72
2023/08/16 01:45:01;;;;;;;6.43;5.53;;;;;;;;;;5073373;28;20172;-72
2023/08/16 01:48:07;;;;;;;6.27;4.93;;;;;;;;;;5060904;28;20175;-72
2023/08/16 01:51:11;;;;;;;8.90;5.37;;;;;;;;;;5060714;28;20219;-72
2023/08/16 01:54:15;;;;;;;10.37;6.23;;;;;;;;;;5060741;28;20191;-72
2023/08/16 01:57:19;;;;;;;8.20;5.40;;;;;;;;;;5061020;28;20520;-72
2023/08/16 02:00:24;;;;;;;7.53;5.23;;;;;;;;;;5060778;28;20171;-72
2023/08/16 02:03:29;;;;;;;9.77;5.40;;;;;;;;;;5060766;28;20203;-72
2023/08/16 02:06:32;;;;;;;10.03;5.63;;;;;;;;;;5060871;28;20187;-72
2023/08/16 02:09:37;;;;;;;9.33;5.83;;;;;;;;;;5072956;28;20179;-72
2023/08/16 02:12:40;;;;;;;7.47;5.17;;;;;;;;;;5060826;28;20219;-72
2023/08/16 02:15:45;;;;;;;8.63;5.63;;;;;;;;;;5060609;28;20175;-72
2023/08/16 02:18:50;;;;;;;7.63;5.40;;;;;;;;;;5060810;28;20175;-72
2023/08/16 02:21:54;;;;;;;6.50;5.37;;;;;;;;;;5060547;28;20215;-72
2023/08/16 02:24:59;;;;;;;7.43;5.20;;;;;;;;;;5060429;28;20192;-72
2023/08/16 02:28:03;;;;;;;7.73;5.50;;;;;;;;;;5060774;28;20184;-72
2023/08/16 02:31:08;;;;;;;6.53;5.33;;;;;;;;;;5072602;28;20218;-72
2023/08/16 02:34:12;;;;;;;7.10;5.37;;;;;;;;;;5060468;28;20200;-72
2023/08/16 02:37:17;;;;;;;8.40;5.37;;;;;;;;;;5060352;28;20179;-72
2023/08/16 02:40:22;;;;;;;6.37;5.70;;;;;;;;;;5060395;28;20187;-72
2023/08/16 02:43:26;;;;;;;9.13;5.27;;;;;;;;;;5060454;28;20211;-72
2023/08/16 02:46:30;;;;;;;12.37;5.97;;;;;;;;;;5060252;28;20207;-72
2023/08/16 02:49:35;;;;;;;8.50;6.03;;;;;;;;;;5072581;28;20626;-72
2023/08/16 02:52:39;;;;;;;6.77;5.77;;;;;;;;;;5060163;28;20223;-72
2023/08/16 02:55:43;;;;;;;6.53;5.40;;;;;;;;;;5072471;28;20195;-72
2023/08/16 02:58:47;;;;;;;8.23;5.57;;;;;;;;;;5061274;28;20191;-72
2023/08/16 03:01:51;;;;;;;6.90;5.37;;;;;;;;;;5052688;28;20210;-72
2023/08/16 03:04:55;;;;;;;6.20;5.60;;;;;;;;;;5064045;28;20175;-72
2023/08/16 03:07:59;;;;;;;6.90;5.93;;;;;;;;;;5076030;28;20180;-72
2023/08/16 03:11:03;;;;;;;8.60;6.10;;;;;;;;;;5076093;28;20219;-72
2023/08/16 03:14:07;;;;;;;6.60;5.77;;;;;;;;;;5076070;28;20175;-72
2023/08/16 03:17:11;;;;;;;6.80;5.50;;;;;;;;;;5063577;28;20179;-72
2023/08/16 03:20:16;;;;;;;9.80;5.33;;;;;;;;;;5076104;28;20631;-72
2023/08/16 03:23:20;;;;;;;11.83;5.70;;;;;;;;;;5075617;28;20219;-72
2023/08/16 03:26:24;;;;;;;10.17;6.20;;;;;;;;;;5063358;28;20180;-72
2023/08/16 03:29:29;;;;;;;6.97;5.97;;;;;;;;;;5063504;28;20179;-72
2023/08/16 03:32:33;;;;;;;8.87;6.50;;;;;;;;;;5063883;28;20203;-72
2023/08/16 03:35:39;;;;;;;9.37;7.00;;;;;;;;;;5051710;28;20191;-72
2023/08/16 03:38:43;;;;;;;7.27;6.43;;;;;;;;;;5063246;28;20199;-72
2023/08/16 03:41:48;;;;;;;10.70;6.40;;;;;;;;;;5063000;28;20215;-72
2023/08/16 03:44:53;;;;;;;9.07;6.43;;;;;;;;;;5063048;28;20223;-72
2023/08/16 03:47:57;;;;;;;6.17;5.60;;;;;;;;;;5063133;28;20172;-72
2023/08/16 03:51:02;;;;;;;7.23;5.57;;;;;;;;;;5063155;28;20567;-72
2023/08/16 03:54:06;;;;;;;8.73;5.87;;;;;;;;;;5063181;28;20172;-72
2023/08/16 03:57:10;;;;;;;6.57;5.33;;;;;;;;;;5062892;28;20179;-71
2023/08/16 04:00:16;;;;;;;7.17;5.27;;;;;;;;;;5062805;28;20176;-71
2023/08/16 04:03:20;;;;;;;6.83;6.07;;;;;;;;;;5062898;28;20208;-72
2023/08/16 04:06:24;;;;;;;7.27;5.50;;;;;;;;;;5062620;28;20547;-72
2023/08/16 04:09:29;;;;;;;6.60;5.37;;;;;;;;;;5062476;28;20199;-71
2023/08/16 04:12:33;;;;;;;6.00;5.33;;;;;;;;;;5075068;28;20215;-71
2023/08/16 04:15:38;;;;;;;5.57;4.97;;;;;;;;;;5074765;28;20184;-72
2023/08/16 04:18:42;;;;;;;6.03;5.20;;;;;;;;;;5051317;28;20172;-72
2023/08/16 04:21:46;;;;;;;8.40;4.63;;;;;;;;;;5062427;28;20214;-72
2023/08/16 04:24:50;;;;;;;5.40;4.87;;;;;;;;;;5051082;28;20203;-71
2023/08/16 04:27:54;;;;;;;5.70;4.97;;;;;;;;;;5062471;28;20180;-71
2023/08/16 04:31:00;;;;;;;9.33;5.13;;;;;;;;;;5062314;28;20215;-71
2023/08/16 04:34:04;;;;;;;7.30;5.00;;;;;;;;;;5062412;28;20179;-71
2023/08/16 04:37:08;;;;;;;8.13;4.57;;;;;;;;;;5062332;28;20183;-71
2023/08/16 04:40:13;;;;;;;9.67;4.87;;;;;;;;;;5062005;28;20188;-71
2023/08/16 04:43:19;;;;;;;11.37;4.93;;;;;;;;;;5062178;28;20215;-71
2023/08/16 04:46:23;;;;;;;5.13;4.63;;;;;;;;;;5061628;28;20233;-71
2023/08/16 04:49:28;;;;;;;7.17;5.10;;;;;;;;;;5074018;28;20203;-71
2023/08/16 04:52:34;;;;;;;11.13;4.70;;;;;;;;;;5073859;28;20219;-71
2023/08/16 04:55:42;;;;;;;5.90;5.17;;;;;;;;;;5073905;28;20180;-71
2023/08/16 04:58:47;;;;;;;5.17;4.67;;;;;;;;;;5050102;28;20180;-71
2023/08/16 05:01:52;;;;;;;7.00;4.70;;;;;;;;;;5073709;28;20223;-71
2023/08/16 05:04:55;;;;;;;5.83;4.60;;;;;;;;;;5061400;28;20215;-72
2023/08/16 05:08:00;;;;;;;7.13;4.63;;;;;;;;;;5073703;28;20175;-71
2023/08/16 05:11:04;;;;;;;7.13;4.80;;;;;;;;;;5061314;28;20215;-71
2023/08/16 05:14:10;;;;;;;7.03;4.60;;;;;;;;;;5061420;28;20203;-71
2023/08/16 05:17:13;;;;;;;9.53;5.10;;;;;;;;;;5061705;28;20183;-71
2023/08/16 05:20:17;;;;;;;5.33;4.83;;;;;;;;;;5049886;28;20183;-71
2023/08/16 05:23:21;;;;;;;6.77;5.43;;;;;;;;;;5073350;28;20638;-71
2023/08/16 05:26:26;;;;;;;7.30;4.67;;;;;;;;;;5073707;28;20176;-71
2023/08/16 05:29:30;;;;;;;6.10;5.00;;;;;;;;;;5073407;28;20176;-71
2023/08/16 05:32:34;;;;;;;5.77;5.00;;;;;;;;;;5073255;28;20223;-71
2023/08/16 05:35:38;;;;;;;6.53;5.00;;;;;;;;;;5073645;28;20175;-71
2023/08/16 05:38:42;;;;;;;5.37;4.87;;;;;;;;;;5060853;28;20195;-71
2023/08/16 05:41:47;;;;;;;6.23;5.07;;;;;;;;;;5073294;28;20207;-71
2023/08/16 05:44:51;;;;;;;9.23;5.47;;;;;;;;;;5073334;28;20207;-71
2023/08/16 05:47:56;;;;;;;7.27;5.20;;;;;;;;;;5073464;28;20528;-71
2023/08/16 05:51:00;;;;;;;7.97;5.20;;;;;;;;;;5073420;28;20560;-71
2023/08/16 05:54:04;;;;;;;6.67;4.53;;;;;;;;;;5073114;28;20179;-71
2023/08/16 05:57:09;;;;;;;6.80;4.70;;;;;;;;;;5073058;28;20179;-71
2023/08/16 06:00:13;;;;;;;8.07;5.70;;;;;;;;;;5073052;28;20539;-71
2023/08/16 06:03:18;;;;;;;7.37;5.93;;;;;;;;;;5060992;28;20179;-71
2023/08/16 06:06:22;;;;;;;8.77;6.23;;;;;;;;;;5073017;28;20175;-71
2023/08/16 06:09:26;;;;;;;6.87;5.80;;;;;;;;;;5060651;28;20638;-71
2023/08/16 06:12:30;;;;;;;6.67;4.57;;;;;;;;;;5072842;28;20219;-71
2023/08/16 06:15:34;;;;;;;7.80;6.23;;;;;;;;;;5060624;28;20195;-71
2023/08/16 06:18:38;;;;;;;8.37;5.53;;;;;;;;;;5060562;28;20519;-71
2023/08/16 06:21:42;;;;;;;6.83;6.00;;;;;;;;;;5072917;28;20219;-71
2023/08/16 06:24:47;;;;;;;7.67;5.93;;;;;;;;;;5048929;28;20549;-71
2023/08/16 06:27:51;;;;;;;8.10;6.50;;;;;;;;;;5060787;28;20519;-71
2023/08/16 06:30:56;;;;;;;9.60;7.20;;;;;;;;;;5060717;28;20176;-73
2023/08/16 06:34:00;;;;;;;7.67;6.77;;;;;;;;;;5074374;28;20650;-72
2023/08/16 06:37:04;;;;;;;8.60;7.47;;;;;;;;;;5064509;28;20188;-72
2023/08/16 06:40:09;;;;;;;7.33;6.47;;;;;;;;;;5076535;28;20179;-72
2023/08/16 06:43:13;;;;;;;8.00;7.20;;;;;;;;;;5076542;28;20619;-72
2023/08/16 06:46:17;;;;;;;8.63;6.47;;;;;;;;;;5052681;28;20221;-72
2023/08/16 06:49:21;;;;;;;8.50;7.00;;;;;;;;;;5064358;28;20183;-72
2023/08/16 06:52:25;;;;;;;12.60;7.20;;;;;;;;;;5063929;28;20215;-73
2023/08/16 06:55:29;;;;;;;11.40;7.23;;;;;;;;;;5063950;28;20197;-72
2023/08/16 06:58:34;;;;;;;11.17;8.00;;;;;;;;;;5076505;28;20678;-72
2023/08/16 07:01:38;;;;;;;9.57;7.23;;;;;;;;;;5076228;28;20215;-73
2023/08/16 07:04:45;;;;;;;14.80;7.43;;;;;;;;;;5076311;28;20211;-73
2023/08/16 07:07:49;;;;;;;9.07;6.50;;;;;;;;;;5063728;28;20180;-73
2023/08/16 07:10:54;;;;;;;8.33;6.30;;;;;;;;;;5075954;28;20180;-73
2023/08/16 07:13:59;;;;;;;7.67;5.90;;;;;;;;;;5076059;28;20175;-73
2023/08/16 07:17:05;;;;;;;8.13;6.80;;;;;;;;;;5075851;28;20198;-72
2023/08/16 07:20:10;;;;;;;6.57;5.93;;;;;;;;;;5063540;28;20196;-72
2023/08/16 07:23:14;;;;;;;8.07;6.10;;;;;;;;;;5075764;28;20182;-72
2023/08/16 07:26:18;;;;;;;9.10;6.30;;;;;;;;;;5075981;28;20173;-72
2023/08/16 07:29:22;;;;;;;8.20;6.67;;;;;;;;;;5076045;28;20180;-73
2023/08/16 07:32:27;;;;;;;6.83;5.80;;;;;;;;;;5075953;28;20215;-73
2023/08/16 07:35:31;;;;;;;5.93;5.13;;;;;;;;;;5052461;28;20181;-73
2023/08/16 07:38:35;;;;;;;7.07;5.33;;;;;;;;;;5063266;28;20179;-72
2023/08/16 07:41:39;;;;;;;9.00;5.73;;;;;;;;;;5063047;28;20222;-72
2023/08/16 07:44:43;;;;;;;10.07;5.40;;;;;;;;;;5075059;28;20220;-73
2023/08/16 07:47:47;;;;;;;8.30;5.87;;;;;;;;;;5075494;28;20190;-72
2023/08/16 07:50:51;;;;;;;5.77;5.27;;;;;;;;;;5075276;28;20185;-72
2023/08/16 07:53:55;;;;;;;7.33;5.00;;;;;;;;;;5075630;28;20623;-72
2023/08/16 07:56:59;;;;;;;10.23;5.03;;;;;;;;;;5075437;28;20169;-72
2023/08/16 08:00:06;;;;;;;5.90;4.90;;;;;;;;;;5075117;28;20178;-72
2023/08/16 08:03:17;;;;;;;4.75;4.25;;;;;;;;;;5074976;28;20194;-72
2023/08/16 08:06:21;;;;;;;5.25;4.25;;;;;;;;;;5074943;28;20563;-72
2023/08/16 08:09:26;;;;;;;5.32;3.97;;;;;;;;;;5074863;28;20193;-72
2023/08/16 08:12:30;;;;;;;5.80;3.58;;;;;;;;;;5074829;28;20214;-72
2023/08/16 08:15:35;;;;;;;6.18;4.00;;;;;;;;;;5074873;28;20172;-73
2023/08/16 08:18:39;;;;;;;5.30;3.75;;;;;;;;;;5075097;28;20516;-72
2023/08/16 08:21:43;;;;;;;7.55;4.63;;;;;;;;;;5074774;28;20221;-72
2023/08/16 08:24:47;;;;;;;10.95;4.30;;;;;;;;;;5062254;28;20203;-72
2023/08/16 08:27:51;;;;;;;7.50;3.83;;;;;;;;;;5074572;28;20176;-72
2023/08/16 08:30:55;;;;;;;4.28;3.78;;;;;;;;;;5074405;28;20516;-73
2023/08/16 08:33:59;;;;;;;6.60;4.03;;;;;;;;;;5062145;28;20179;-72
2023/08/16 08:37:03;;;;;;;5.13;3.30;;;;;;;;;;5074371;28;20527;-72
2023/08/16 08:40:07;;;;;;;5.35;3.30;;;;;;;;;;5074555;28;20511;-73
2023/08/16 08:43:16;;;;;;;4.85;3.75;;;;;;;;;;5074557;28;20172;-73
2023/08/16 08:46:20;;;;;;;5.30;4.05;;;;;;;;;;5074142;28;20220;-73
2023/08/16 08:49:25;;;;;;;7.80;3.83;;;;;;;;;;5074082;28;20188;-73
2023/08/16 08:52:30;;;;;;;6.07;3.88;;;;;;;;;;5074272;28;20211;-73
2023/08/16 08:55:36;;;;;;;8.63;3.92;;;;;;;;;;5073741;28;20185;-73
2023/08/16 08:58:42;;;;;;;7.07;3.30;;;;;;;;;;5061970;28;20663;-73
2023/08/16 09:01:49;;;;;;;6.70;3.60;;;;;;;;;;5074270;28;20237;-73
2023/08/16 09:04:57;;;;;;;3.85;3.45;;;;;;;;;;5061804;28;20203;-73
2023/08/16 09:08:02;;;;;;;4.25;3.40;;;;;;;;;;5061484;28;20643;-73
2023/08/16 09:11:07;;;;;;;5.50;3.50;;;;;;;;;;5073594;28;20560;-73
2023/08/16 09:14:11;;;;;;;11.15;3.90;;;;;;;;;;5073911;28;20179;-73
2023/08/16 09:17:15;;;;;;;5.70;3.28;;;;;;;;;;5074292;28;20184;-72
2023/08/16 09:20:20;;;;;;;4.20;3.30;;;;;;;;;;5073574;28;20184;-72
2023/08/16 09:23:24;;;;;;;5.32;3.17;;;;;;;;;;5073651;28;20180;-72
2023/08/16 09:26:29;;;;;;;3.95;3.33;;;;;;;;;;5073766;28;20208;-73
2023/08/16 09:29:33;;;;;;;4.30;3.20;;;;;;;;;;5073565;28;20627;-72
2023/08/16 09:32:37;;;;;;;5.95;3.63;;;;;;;;;;5073422;28;20693;-72
2023/08/16 09:35:50;;;;;;;12.32;3.70;;;;;;;;;;5061030;28;20176;-73
2023/08/16 09:39:03;;;;;;;6.13;3.08;;;;;;;;;;5073454;28;20191;-72
2023/08/16 09:42:08;;;;;;;5.97;3.55;;;;;;;;;;5060814;28;20567;-72
2023/08/16 09:45:12;;;;;;;4.57;3.30;;;;;;;;;;5073269;28;20560;-72
2023/08/16 09:48:19;;;;;;;6.28;3.40;;;;;;;;;;5049814;28;20512;-72
2023/08/16 09:51:24;;;;;;;4.32;3.38;;;;;;;;;;5073414;28;20706;-72
2023/08/16 09:54:31;;;;;;;4.43;2.95;;;;;;;;;;5060823;28;20172;-72
2023/08/16 09:57:35;;;;;;;5.45;3.10;;;;;;;;;;5073122;28;20176;-72
2023/08/16 10:00:40;;;;;;;5.85;3.38;;;;;;;;;;5073019;28;20180;-72
2023/08/16 10:03:52;;;;;;;6.13;3.42;;;;;;;;;;5073305;28;20180;-72
2023/08/16 10:06:57;;;;;;;5.80;3.17;;;;;;;;;;5073268;28;20211;-72
2023/08/16 10:10:01;;;;;;;10.50;3.28;;;;;;;;;;5079662;28;20176;-72
2023/08/16 10:13:07;;;;;;;6.68;3.50;;;;;;;;;;5067489;28;20638;-72
2023/08/16 10:16:14;;;;;;;3.85;3.08;;;;;;;;;;5079936;28;20176;-73
2023/08/16 10:19:23;;;;;;;7.53;3.15;;;;;;;;;;5079544;28;20520;-72
2023/08/16 10:22:32;;;;;;;3.90;3.00;;;;;;;;;;5079729;28;20211;-72
2023/08/16 10:25:45;;;;;;;4.57;2.80;;;;;;;;;;5067319;28;20563;-72
2023/08/16 10:28:52;;;;;;;5.60;2.95;;;;;;;;;;5079728;28;20631;-72
2023/08/16 10:31:56;;;;;;;4.20;2.50;;;;;;;;;;5079486;28;20219;-72
2023/08/16 10:35:02;;;;;;;4.25;2.88;;;;;;;;;;5055502;28;20184;-72
2023/08/16 10:38:06;;;;;;;4.13;2.42;;;;;;;;;;5079327;28;20179;-72
2023/08/16 10:41:11;;;;;;;7.90;2.50;;;;;;;;;;5079290;28;20555;-72
2023/08/16 10:44:23;;;;;;;3.30;2.35;;;;;;;;;;5079271;28;20195;-72
2023/08/16 10:47:31;;;;;;;3.70;2.50;;;;;;;;;;5079765;28;20204;-72
2023/08/16 10:50:36;;;;;;;3.22;2.13;;;;;;;;;;5079625;28;20246;-72
2023/08/16 10:53:42;;;;;;;3.03;2.10;;;;;;;;;;5066907;28;20195;-72
2023/08/16 10:56:50;;;;;;;4.95;2.38;;;;;;;;;;5079452;28;20200;-72
2023/08/16 11:00:03;;;;;;;4.00;2.30;;;;;;;;;;5067013;28;20176;-72
2023/08/16 11:03:18;;;;;;;3.55;2.33;;;;;;;;;;5079440;28;20184;-72
2023/08/16 11:06:23;;;;;;;6.30;2.40;;;;;;;;;;5066972;28;20208;-73
2023/08/16 11:09:30;;;;;;;4.22;2.17;;;;;;;;;;5079440;28;20514;-73
2023/08/16 11:12:34;;;;;;;4.93;2.22;;;;;;;;;;5079117;28;20211;-73
2023/08/16 11:15:40;;;;;;;4.43;2.30;;;;;;;;;;5079018;28;20171;-73
2023/08/16 11:18:44;;;;;;;3.85;2.17;;;;;;;;;;5078529;28;20172;-73
2023/08/16 11:21:51;;;;;;;5.82;2.28;;;;;;;;;;5063497;28;20215;-73
2023/08/16 11:24:55;;;;;;;3.17;2.20;;;;;;;;;;5076075;28;20180;-73
2023/08/16 11:28:00;;;;;;;3.40;2.20;;;;;;;;;;5075688;28;20658;-73
2023/08/16 11:31:06;;;;;;;2.25;2.05;;;;;;;;;;5075759;28;20215;-73
2023/08/16 11:34:10;;;;;;;4.18;2.50;;;;;;;;;;5063350;28;20171;-73
2023/08/16 11:37:19;;;;;;;2.58;2.10;;;;;;;;;;5063494;28;20187;-73
2023/08/16 11:40:24;;;;;;;2.53;1.98;;;;;;;;;;5075783;28;20662;-73
2023/08/16 11:43:29;;;;;;;2.47;1.83;;;;;;;;;;5075697;28;20176;-73
2023/08/16 11:46:44;;;;;;;2.67;2.00;;;;;;;;;;5075538;28;20219;-73
2023/08/16 11:49:49;;;;;;;3.55;2.20;;;;;;;;;;5075934;28;20176;-73
2023/08/16 11:53:02;;;;;;;2.88;1.85;;;;;;;;;;5062866;28;20215;-73
2023/08/16 11:56:11;;;;;;;4.32;2.15;;;;;;;;;;5075522;28;20176;-73
2023/08/16 11:59:29;;;;;;;4.80;2.10;;;;;;;;;;5075407;28;20176;-73
2023/08/16 12:02:33;;;;;;;4.18;2.22;;;;;;;;;;5075041;28;20220;-73
2023/08/16 12:05:39;;;;;;;3.28;1.98;;;;;;;;;;5074980;28;20207;-73
2023/08/16 12:08:48;;;;;;;5.55;2.03;;;;;;;;;;5075518;28;20179;-73
2023/08/16 12:11:53;;;;;;;4.72;2.08;;;;;;;;;;5074866;28;20211;-73
2023/08/16 12:14:57;;;;;;;2.95;2.00;;;;;;;;;;5051152;28;20534;-73
2023/08/16 12:18:01;;;;;;;3.80;1.88;;;;;;;;;;5074791;28;20179;-73
2023/08/16 12:21:04;;;;;;;3.15;1.95;;;;;;;;;;5051127;28;20208;-73
2023/08/16 12:24:09;;;;;;;3.75;1.92;;;;;;;;;;5074619;28;20535;-73
2023/08/16 12:27:13;;;;;;;1.95;1.75;;;;;;;;;;5062576;28;20208;-73
2023/08/16 12:30:17;;;;;;;4.00;1.88;;;;;;;;;;5074264;28;20184;-73
2023/08/16 12:33:21;;;;;;;2.78;1.70;;;;;;;;;;5074398;28;20184;-73
2023/08/16 12:36:26;;;;;;;4.45;1.98;;;;;;;;;;5062429;28;20168;-73
2023/08/16 12:39:30;;;;;;;3.72;1.80;;;;;;;;;;5074338;28;20539;-73
2023/08/16 12:42:34;;;;;;;3.92;1.80;;;;;;;;;;5074299;28;20553;-73
2023/08/16 12:45:38;;;;;;;3.55;1.50;;;;;;;;;;5074058;28;20196;-73
2023/08/16 12:48:42;;;;;;;4.30;1.95;;;;;;;;;;5074471;28;20631;-73
2023/08/16 12:51:46;;;;;;;4.22;1.83;;;;;;;;;;5074092;28;20211;-73
2023/08/16 12:54:51;;;;;;;3.63;2.05;;;;;;;;;;5073908;28;20184;-73
2023/08/16 12:57:56;;;;;;;2.42;1.60;;;;;;;;;;5073951;28;20172;-73
2023/08/16 13:01:00;;;;;;;3.20;1.80;;;;;;;;;;5061599;28;20211;-73
2023/08/16 13:04:04;;;;;;;4.70;1.77;;;;;;;;;;5074054;28;20522;-73
2023/08/16 13:07:08;;;;;;;2.25;1.90;;;;;;;;;;5073747;28;20207;-73
2023/08/16 13:10:13;;;;;;;3.17;1.70;;;;;;;;;;5074318;28;20180;-73
2023/08/16 13:13:17;;;;;;;2.20;1.67;;;;;;;;;;5073649;28;20204;-73
2023/08/16 13:16:21;;;;;;;2.60;1.98;;;;;;;;;;5073608;28;20196;-73
2023/08/16 13:19:25;;;;;;;2.65;1.85;;;;;;;;;;5073647;28;20171;-72
2023/08/16 13:22:29;;;;;;;5.00;1.95;;;;;;;;;;5073474;28;20216;-73
2023/08/16 13:25:33;;;;;;;4.28;1.88;;;;;;;;;;5073584;28;20196;-73
2023/08/16 13:28:38;;;;;;;2.10;1.75;;;;;;;;;;5073344;28;20172;-73
2023/08/16 13:31:42;;;;;;;5.40;1.70;;;;;;;;;;5073521;28;20557;-73
2023/08/16 13:34:46;;;;;;;2.72;1.70;;;;;;;;;;5073451;28;20670;-73
2023/08/16 13:37:50;;;;;;;2.05;1.80;;;;;;;;;;5061102;28;20195;-73
2023/08/16 13:40:55;;;;;;;4.53;1.75;;;;;;;;;;5073130;28;20192;-73
2023/08/16 13:43:59;;;;;;;6.00;1.70;;;;;;;;;;5060816;28;20176;-73
2023/08/16 13:47:04;;;;;;;2.28;1.80;;;;;;;;;;5060563;28;20219;-73
2023/08/16 13:50:08;;;;;;;4.25;2.00;;;;;;;;;;5073165;28;20176;-73
2023/08/16 13:53:12;;;;;;;2.35;1.85;;;;;;;;;;5073515;28;20176;-73
2023/08/16 13:56:16;;;;;;;5.13;2.10;;;;;;;;;;5073260;28;20183;-73
2023/08/16 13:59:21;;;;;;;2.28;1.83;;;;;;;;;;5072933;28;20180;-73
2023/08/16 14:02:25;;;;;;;2.90;2.10;;;;;;;;;;5060707;28;20556;-73
2023/08/16 14:05:29;;;;;;;3.45;1.65;;;;;;;;;;5073202;28;20514;-73
2023/08/16 14:08:33;;;;;;;3.78;1.70;;;;;;;;;;5060711;28;20647;-73
2023/08/16 14:11:38;;;;;;;4.32;2.00;;;;;;;;;;5060745;28;20211;-73
2023/08/16 14:14:43;;;;;;;4.43;2.00;;;;;;;;;;5072795;28;20650;-73
2023/08/16 14:17:46;;;;;;;7.78;2.13;;;;;;;;;;5060700;28;20646;-73
2023/08/16 14:20:51;;;;;;;5.43;2.58;;;;;;;;;;5049221;28;20179;-73
2023/08/16 14:23:55;;;;;;;3.63;2.17;;;;;;;;;;5072890;28;20176;-73
2023/08/16 14:27:00;;;;;;;3.53;2.00;;;;;;;;;;5072658;28;20208;-73
2023/08/16 14:30:05;;;;;;;4.32;1.90;;;;;;;;;;5072777;28;20524;-73
2023/08/16 14:33:10;;;;;;;3.85;2.00;;;;;;;;;;5072621;28;20515;-73
2023/08/16 14:36:14;;;;;;;3.35;2.00;;;;;;;;;;5073490;28;20607;-73
2023/08/16 14:39:18;;;;;;;4.65;2.15;;;;;;;;;;5072645;28;20627;-73
2023/08/16 14:42:23;;;;;;;3.47;2.45;;;;;;;;;;5072748;28;20211;-73
2023/08/16 14:45:27;;;;;;;3.53;2.20;;;;;;;;;;5060282;28;20184;-73
2023/08/16 14:48:31;;;;;;;2.10;1.90;;;;;;;;;;5072793;28;20176;-73
2023/08/16 14:51:35;;;;;;;3.30;2.28;;;;;;;;;;5072399;28;20212;-73
2023/08/16 14:54:40;;;;;;;3.08;2.28;;;;;;;;;;5073529;28;20531;-73
2023/08/16 14:57:46;;;;;;;4.80;2.00;;;;;;;;;;5076434;28;20172;-73
2023/08/16 15:00:50;;;;;;;5.72;2.08;;;;;;;;;;5076561;28;20620;-73
2023/08/16 15:03:54;;;;;;;2.67;2.00;;;;;;;;;;5076111;28;20192;-73
2023/08/16 15:06:58;;;;;;;3.35;1.88;;;;;;;;;;5052636;28;20219;-73
2023/08/16 15:10:02;;;;;;;2.55;2.15;;;;;;;;;;5064303;28;20183;-73
2023/08/16 15:13:06;;;;;;;4.88;1.92;;;;;;;;;;5075918;28;20533;-73
2023/08/16 15:16:11;;;;;;;4.57;2.22;;;;;;;;;;5076095;28;20179;-73
2023/08/16 15:19:15;;;;;;;3.28;1.98;;;;;;;;;;5063933;28;20180;-73
2023/08/16 15:22:20;;;;;;;2.20;1.80;;;;;;;;;;5075787;28;20220;-73
2023/08/16 15:25:24;;;;;;;5.82;2.30;;;;;;;;;;5075723;28;20180;-73
2023/08/16 15:28:28;;;;;;;2.72;2.15;;;;;;;;;;5075550;28;20203;-73
2023/08/16 15:31:33;;;;;;;7.18;2.25;;;;;;;;;;5063501;28;20211;-73
2023/08/16 15:34:37;;;;;;;2.97;2.03;;;;;;;;;;5075547;28;20526;-73
2023/08/16 15:37:41;;;;;;;5.15;2.33;;;;;;;;;;5075629;28;20172;-73
2023/08/16 15:40:45;;;;;;;4.50;2.45;;;;;;;;;;5075882;28;20172;-73
2023/08/16 15:43:50;;;;;;;3.50;1.98;;;;;;;;;;5063303;28;20526;-72
2023/08/16 15:46:54;;;;;;;2.92;2.05;;;;;;;;;;5062859;28;20566;-73
2023/08/16 15:49:58;;;;;;;5.32;2.35;;;;;;;;;;5075515;28;20171;-73
2023/08/16 15:53:03;;;;;;;5.97;2.17;;;;;;;;;;5062798;28;20208;-73
2023/08/16 15:56:07;;;;;;;3.17;2.40;;;;;;;;;;5075121;28;20196;-72
2023/08/16 15:59:11;;;;;;;4.07;2.30;;;;;;;;;;5075161;28;20199;-73
2023/08/16 16:02:15;;;;;;;5.88;2.03;;;;;;;;;;5075074;28;20219;-73
2023/08/16 16:05:19;;;;;;;6.38;2.33;;;;;;;;;;5074630;28;20627;-73
2023/08/16 16:08:24;;;;;;;2.40;2.17;;;;;;;;;;5074842;28;20214;-73
2023/08/16 16:11:29;;;;;;;2.45;2.10;;;;;;;;;;5075573;28;20208;-73
2023/08/16 16:14:33;;;;;;;10.20;3.10;;;;;;;;;;5074744;28;20176;-73
2023/08/16 16:17:38;;;;;;;3.38;2.33;;;;;;;;;;5075037;28;20627;-73
2023/08/16 16:20:42;;;;;;;5.13;2.40;;;;;;;;;;5075079;28;20186;-73
2023/08/16 16:23:46;;;;;;;4.15;2.10;;;;;;;;;;5074699;28;20179;-73
2023/08/16 16:26:50;;;;;;;2.67;2.20;;;;;;;;;;5074637;28;20520;-73
2023/08/16 16:29:54;;;;;;;3.95;2.40;;;;;;;;;;5074396;28;20681;-73
2023/08/16 16:32:58;;;;;;;4.40;2.30;;;;;;;;;;5074555;28;20221;-73
2023/08/16 16:36:03;;;;;;;2.90;2.00;;;;;;;;;;5074333;28;20199;-73
2023/08/16 16:39:08;;;;;;;2.60;1.95;;;;;;;;;;5074214;28;20186;-73
2023/08/16 16:42:12;;;;;;;5.85;2.20;;;;;;;;;;5074162;28;20218;-73
2023/08/16 16:45:16;;;;;;;2.88;2.17;;;;;;;;;;5073981;28;20178;-73
2023/08/16 16:48:20;;;;;;;9.30;2.72;;;;;;;;;;5061887;28;20211;-73
2023/08/16 16:51:24;;;;;;;3.30;2.20;;;;;;;;;;5074013;28;20242;-76
2023/08/16 16:54:28;;;;;;;3.47;2.35;;;;;;;;;;5074229;28;20188;-73
2023/08/16 16:57:33;;;;;;;3.15;2.28;;;;;;;;;;5074155;28;20180;-72
2023/08/16 17:00:37;;;;;;;3.35;2.10;;;;;;;;;;5050243;28;20179;-72
2023/08/16 17:03:41;;;;;;;6.68;2.63;;;;;;;;;;5073726;28;20175;-72
2023/08/16 17:06:45;;;;;;;3.35;2.20;;;;;;;;;;5073695;28;20176;-72
2023/08/16 17:09:48;;;;;;;3.78;2.17;;;;;;;;;;5073941;28;20189;-72
2023/08/16 17:12:53;;;;;;;6.38;2.60;;;;;;;;;;5061950;28;20210;-71
2023/08/16 17:15:57;;;;;;;5.22;2.60;;;;;;;;;;5073824;28;20520;-72
2023/08/16 17:19:01;;;;;;;3.25;2.80;;;;;;;;;;5073387;28;20168;-72
2023/08/16 17:22:05;;;;;;;4.07;2.65;;;;;;;;;;5073448;28;20209;-72
2023/08/16 17:25:09;;;;;;;4.88;2.65;;;;;;;;;;5073420;28;20177;-72
2023/08/16 17:28:14;;;;;;;3.67;2.60;;;;;;;;;;5073302;28;20229;-72
2023/08/16 17:31:18;;;;;;;5.93;2.88;;;;;;;;;;5073469;28;20567;-72
2023/08/16 17:34:22;;;;;;;8.32;2.63;;;;;;;;;;5061248;28;20180;-72
2023/08/16 17:37:26;;;;;;;5.75;2.70;;;;;;;;;;5060977;28;20170;-72
2023/08/16 17:40:30;;;;;;;4.47;2.67;;;;;;;;;;5073479;28;20615;-71
2023/08/16 17:43:35;;;;;;;3.33;2.85;;;;;;;;;;5073369;28;20268;-72
2023/08/16 17:46:39;;;;;;;4.25;2.67;;;;;;;;;;5060826;28;20199;-72
2023/08/16 17:49:43;;;;;;;4.10;2.72;;;;;;;;;;5060736;28;20172;-72
2023/08/16 17:52:47;;;;;;;3.58;2.55;;;;;;;;;;5060873;28;20226;-72
2023/08/16 17:55:51;;;;;;;5.78;2.75;;;;;;;;;;5073271;28;20212;-72
2023/08/16 17:58:56;;;;;;;5.15;2.65;;;;;;;;;;5049557;28;20625;-72
2023/08/16 18:02:00;;;;;;;3.55;2.60;;;;;;;;;;5060690;28;20222;-72
2023/08/16 18:05:05;;;;;;;5.50;2.70;;;;;;;;;;5073065;28;20204;-72
2023/08/16 18:08:09;;;;;;;3.65;2.47;;;;;;;;;;5072728;28;20213;-72
2023/08/16 18:11:13;;;;;;;3.25;2.55;;;;;;;;;;5072716;28;20214;-72
2023/08/16 18:14:17;;;;;;;2.88;2.58;;;;;;;;;;5072702;28;20199;-72
2023/08/16 18:17:21;;;;;;;3.42;2.55;;;;;;;;;;5072772;28;20201;-72
2023/08/16 18:20:25;;;;;;;3.83;2.70;;;;;;;;;;5072813;28;20167;-72
2023/08/16 18:23:30;;;;;;;6.03;2.45;;;;;;;;;;5072709;28;20182;-72
2023/08/16 18:26:34;;;;;;;3.53;2.70;;;;;;;;;;5073123;28;20633;-72
2023/08/16 18:29:38;;;;;;;8.45;3.08;;;;;;;;;;5063259;28;20175;-72